Flight Track Log - Related Links

Times and Time Zones

All times are in EDT time to prevent confusion due to time zone crossing. See the SWA2166 flight status page for this flight to view local times or setup timezone preferences in your user account.

Time Position Orientation Groundspeed Altitude Reporting Facility
EDT Latitude Longitude Course Direction KTS MPH feet Rate Location/Type
Fri 05:09:53 PM 28.4000 -81.3000 221° Southwest 150 173 1,000  Level Orlando TRACON
Fri 05:10:47 PM 28.3667 -81.3333 221° Southwest 211 243 3,000 2,778 Climbing Orlando TRACON
Fri 05:11:41 PM 28.3333 -81.3667 221° Southwest 221 254 6,000 3,316 Climbing Orlando TRACON
Fri 05:12:41 PM 28.3500 -81.4333 286° West 255 293 9,300 2,921 Climbing Orlando TRACON
Fri 05:14:52 PM 28.3942 -81.6372 284° West 312 359 15,300 3,550 Climbing Jacksonville Center
Fri 05:15:52 PM 28.4142 -81.7503 281° West 332 382 20,600 3,550 Climbing Jacksonville Center
Fri 05:16:52 PM 28.4294 -81.8375 281° West 332 382 22,400 2,250 Climbing Jacksonville Center
Fri 05:17:52 PM 28.4553 -81.9364 287° West 332 382 25,100 2,300 Climbing Jacksonville Center
Fri 05:18:52 PM 28.4769 -82.0542 282° West 337 388 27,000 2,050 Climbing Jacksonville Center
Fri 05:19:52 PM 28.5006 -82.1628 284° West 343 395 29,200 1,850 Climbing Jacksonville Center
Fri 05:20:52 PM 28.5242 -82.2783 283° West 355 409 30,700 1,550 Climbing Jacksonville Center
Fri 05:21:52 PM 28.5517 -82.3961 285° West 374 430 32,300 1,650 Climbing Jacksonville Center
Fri 05:22:52 PM 28.5792 -82.5167 285° West 384 442 34,000 850 Climbing Jacksonville Center
Fri 05:23:52 PM 28.6547 -82.6111 312° West 385 443 34,000  Level Jacksonville Center
Fri 05:24:52 PM 28.7550 -82.6914 325° Northwest 400 460 34,000 500 Level Jacksonville Center
Fri 05:25:52 PM 28.8614 -82.7739 326° Northwest 434 499 35,000 1,350 Climbing Jacksonville Center
Fri 05:26:52 PM 28.9658 -82.8594 324° Northwest 454 522 36,700 1,700 Climbing Jacksonville Center
Fri 05:27:52 PM 29.0661 -82.9400 325° Northwest 459 528 38,400 1,650 Climbing Jacksonville Center
Fri 05:28:52 PM 29.1642 -83.0211 324° Northwest 454 522 40,000 800 Climbing Jacksonville Center
Fri 05:29:52 PM 29.2664 -83.1019 325° Northwest 454 522 40,000  Level Jacksonville Center
Fri 05:30:52 PM 29.3642 -83.1833 324° Northwest 449 517 40,000  Level Jacksonville Center
Fri 05:31:52 PM 29.4622 -83.2647 324° Northwest 444 511 40,000  Level Jacksonville Center
Fri 05:32:52 PM 29.5622 -83.3461 325° Northwest 444 511 40,000  Level Jacksonville Center
Fri 05:33:52 PM 29.6642 -83.4281 325° Northwest 444 511 40,000  Level Jacksonville Center
Fri 05:34:52 PM 29.7639 -83.5075 325° Northwest 444 511 40,000  Level Jacksonville Center
Fri 05:35:52 PM 29.8636 -83.5919 324° Northwest 444 511 40,000  Level Jacksonville Center
Fri 05:36:52 PM 29.9614 -83.6717 325° Northwest 439 505 40,000  Level Jacksonville Center
Fri 05:37:52 PM 30.0631 -83.7567 324° Northwest 446 513 40,000  Level Jacksonville Center
Fri 05:38:52 PM 30.1669 -83.8417 325° Northwest 451 519 40,000  Level Jacksonville Center
Fri 05:39:52 PM 30.2728 -83.9292 324° Northwest 451 519 40,000  Level Jacksonville Center
Fri 05:40:52 PM 30.3764 -84.0147 325° Northwest 456 525 40,000  Level Jacksonville Center
Fri 05:41:52 PM 30.4800 -84.1025 324° Northwest 461 531 40,000  Level Jacksonville Center
Fri 05:42:52 PM 30.5731 -84.1833 323° Northwest 461 531 40,000 -350 Level Jacksonville Center
Fri 05:43:52 PM 30.6786 -84.2717 324° Northwest 461 531 39,300 -850 Descending Jacksonville Center
Fri 05:44:52 PM 30.7800 -84.3603 323° Northwest 461 531 38,300 -650 Descending Jacksonville Center
Fri 05:45:52 PM 30.8856 -84.4467 325° Northwest 461 531 38,000 -150 Descending Jacksonville Center
Fri 05:46:52 PM 30.9889 -84.5356 324° Northwest 461 531 38,000  Level Jacksonville Center
Fri 05:47:52 PM 31.0919 -84.6247 323° Northwest 456 525 38,000  Level Jacksonville Center
Fri 05:48:52 PM 31.1953 -84.7117 324° Northwest 456 525 38,000 -450 Level Jacksonville Center
Fri 05:49:52 PM 31.2961 -84.7986 324° Northwest 456 525 37,100 -1,182 Descending Jacksonville Center
Fri 05:52:15 PM 31.5486 -85.0186 323° Northwest 456 525 34,000 -1,005 Descending Atlanta Center
Fri 05:53:15 PM 31.6503 -85.1000 326° Northwest 456 525 33,700 -600 Descending Atlanta Center
Fri 05:54:15 PM 31.7414 -85.1792 324° Northwest 457 526 32,800 -950 Descending Atlanta Center
Fri 05:55:15 PM 31.8428 -85.2661 324° Northwest 457 526 31,800 -1,000 Descending Atlanta Center
Fri 05:56:15 PM 31.9422 -85.3531 323° Northwest 457 526 30,800 -1,000 Descending Atlanta Center
Fri 05:57:15 PM 32.0392 -85.4403 323° Northwest 450 518 29,800 -1,000 Descending Atlanta Center
Fri 05:58:15 PM 32.1300 -85.5228 322° Northwest 436 502 28,800 -1,050 Descending Atlanta Center
Fri 05:59:15 PM 32.2294 -85.6006 327° Northwest 429 494 27,700 -1,150 Descending Atlanta Center
Fri 06:00:15 PM 32.3369 -85.6811 328° Northwest 424 488 26,500 -1,100 Descending Atlanta Center
Fri 06:01:15 PM 32.4278 -85.7517 327° Northwest 409 471 25,500 -1,000 Descending Atlanta Center
Fri 06:02:15 PM 32.5228 -85.8225 328° Northwest 399 459 24,500 -1,000 Descending Atlanta Center
Fri 06:03:15 PM 32.6114 -85.8908 327° Northwest 392 451 23,500 -1,100 Descending Atlanta Center
Fri 06:04:15 PM 32.6981 -85.9567 327° Northwest 387 445 22,300 -1,600 Descending Atlanta Center
Fri 06:05:15 PM 32.7828 -86.0203 328° Northwest 375 432 20,300 -1,979 Descending Atlanta Center
Fri 06:05:52 PM 32.8300 -86.0658 321° Northwest 347 399 19,100 -1,900 Descending Atlanta Center
Fri 06:06:15 PM 32.8653 -86.0842 336° Northwest 368 423 18,400 -1,906 Descending Atlanta Center
Fri 06:07:17 PM 32.9414 -86.1478 325° Northwest 333 383 16,400 -1,950 Descending Atlanta Center
Fri 06:08:15 PM 33.0175 -86.2017 329° Northwest 331 381 14,500 -1,729 Descending Atlanta Center
Fri 06:09:15 PM 33.0919 -86.2531 330° Northwest 320 368 13,000 -1,350 Descending Atlanta Center
Fri 06:10:15 PM 33.1642 -86.2969 333° Northwest 307 353 11,800 -1,300 Descending Atlanta Center
Fri 06:11:15 PM 33.2300 -86.3408 331° Northwest 285 328 10,400 -1,550 Descending Atlanta Center
Fri 06:12:15 PM 33.2939 -86.3847 330° Northwest 272 313 8,700 -1,400 Descending Atlanta Center
Fri 06:13:15 PM 33.3433 -86.4211 328° Northwest 262 302 7,600 -1,400 Descending Atlanta Center
Fri 06:14:15 PM 33.4050 -86.4775 323° Northwest 257 296 5,900 -1,700 Descending Atlanta Center
Fri 06:15:15 PM 33.4622 -86.5289 323° Northwest 257 296 4,200 -1,349 Descending Atlanta Center
Fri 06:16:24 PM 33.5297 -86.5931 322° Northwest 239 275 3,000 -785 Descending Atlanta Center
Fri 06:17:25 PM 33.5769 -86.6369 322° Northwest 205 236 2,500 -417 Descending Atlanta Center
Fri 06:18:19 PM 33.6053 -86.6753 312° West 153 176 2,200 -626 Descending Atlanta Center
Fri 06:19:20 PM 33.5878 -86.7144 242° Southwest 126 145 1,300 -885 Descending Atlanta Center
Fri 06:21:00 PM 33.5639 -86.7523 260° West  Level Estimated
Fri 06:28:00 PM 33.5639 -86.7523 260° West  Level Estimated

Login

Don't have an account? Register now (free) for customized features, flight alerts, and more!